This is the latest recevied weather packets stored in our database for station/object KC8BSD. If no packets are shown the sender has not sent any weather packets the latest 10 day(s).
| Time | Temp. | Humidity | Pressure | Rain* | Wind** | Luminosity | Snow |
|---|---|---|---|---|---|---|---|
| 1777609766 | 7.22° C | 61% | 1015.4 hPa | 0 mm | - | 0 W/m² | - |
| 1777609463 | 7.22° C | 61% | 1015.4 hPa | 0 mm | - | 0 W/m² | - |
| 1777609160 | 7.22° C | 60% | 1015.6 hPa | 0 mm | - | 0 W/m² | - |
| 1777608857 | 7.22° C | 61% | 1015.4 hPa | 0 mm | - | 0 W/m² | - |
| 1777608554 | 7.22° C | 60% | 1015.6 hPa | 0 mm | - | 0 W/m² | - |
| 1777608251 | 7.78° C | 61% | 1015.6 hPa | 0 mm | - | 0 W/m² | - |
| 1777607949 | 7.78° C | 60% | 1015.8 hPa | 0 mm | - | 0 W/m² | - |
| 1777607644 | 7.78° C | 60% | 1015.6 hPa | 0 mm | - | 0 W/m² | - |
| 1777607341 | 7.78° C | 60% | 1015.7 hPa | 0 mm | - | 0 W/m² | - |
| 1777607037 | 7.78° C | 59% | 1015.9 hPa | 0 mm | - | 0 W/m² | - |
| 1777606733 | 7.78° C | 59% | 1015.9 hPa | 0 mm | - | 0 W/m² | - |
| 1777606428 | 7.78° C | 59% | 1016 hPa | 0 mm | - | 0 W/m² | - |
| 1777606123 | 7.78° C | 62% | 1015.8 hPa | 0 mm | - | 0 W/m² | - |
| 1777605820 | 7.78° C | 61% | 1015.9 hPa | 0 mm | - | 0 W/m² | - |
| 1777605519 | 7.78° C | 60% | 1016.3 hPa | 0 mm | - | 0 W/m² | - |
| 1777605215 | 7.78° C | 58% | 1016.3 hPa | 0 mm | - | 0 W/m² | - |
| 1777604912 | 7.78° C | 58% | 1016.1 hPa | 0 mm | - | 0 W/m² | - |
| 1777604607 | 7.78° C | 58% | 1016 hPa | 0 mm | - | 0 W/m² | - |
| 1777604304 | 8.33° C | 60% | 1016.1 hPa | 0 mm | - | 0 W/m² | - |
| 1777603999 | 8.33° C | 57% | 1016.2 hPa | 0 mm | - | 0 W/m² | - |
| 1777603696 | 8.33° C | 57% | 1016.3 hPa | 0 mm | - | 0 W/m² | - |
| 1777603392 | 8.33° C | 57% | 1016.3 hPa | 0 mm | - | 0 W/m² | - |
| 1777603088 | 8.33° C | 57% | 1016.3 hPa | 0 mm | - | 0 W/m² | - |
| 1777602788 | 8.33° C | 56% | 1016.4 hPa | 0 mm | - | 0 W/m² | - |
| 1777602483 | 8.33° C | 56% | 1016.4 hPa | 0 mm | - | 0 W/m² | - |
* Rain latest hour (hover to see other rain measurements)
** Current wind speed in m/s (hover to see current wind gust speed)